sensor_id;sensor_type;location;lat;lon;timestamp;pressure;altitude;pressure_sealevel;temperature;humidity
83025;BME280;72958;53.326;-1.496;2023-12-20T00:00:41;99493.59;;;4.62;60.51
83025;BME280;72958;53.326;-1.496;2023-12-20T00:03:11;99515.02;;;4.61;60.95
83025;BME280;72958;53.326;-1.496;2023-12-20T00:05:59;99508.64;;;4.72;60.81
83025;BME280;72958;53.326;-1.496;2023-12-20T00:08:43;99507.82;;;4.63;60.49
83025;BME280;72958;53.326;-1.496;2023-12-20T00:11:18;99495.84;;;4.53;60.07
83025;BME280;72958;53.326;-1.496;2023-12-20T00:13:50;99489.35;;;4.92;57.44
83025;BME280;72958;53.326;-1.496;2023-12-20T00:16:18;99515.40;;;4.85;58.72
83025;BME280;72958;53.326;-1.496;2023-12-20T00:18:58;99510.78;;;5.12;58.63
83025;BME280;72958;53.326;-1.496;2023-12-20T00:21:42;99507.65;;;4.81;60.01
83025;BME280;72958;53.326;-1.496;2023-12-20T00:24:09;99526.70;;;4.26;61.91
83025;BME280;72958;53.326;-1.496;2023-12-20T00:26:39;99509.79;;;4.98;59.61
83025;BME280;72958;53.326;-1.496;2023-12-20T00:29:11;99514.91;;;5.07;58.46
83025;BME280;72958;53.326;-1.496;2023-12-20T00:31:56;99521.81;;;6.03;55.78
83025;BME280;72958;53.326;-1.496;2023-12-20T00:34:40;99525.12;;;5.28;57.77
83025;BME280;72958;53.326;-1.496;2023-12-20T00:37:25;99519.15;;;5.68;57.50
83025;BME280;72958;53.326;-1.496;2023-12-20T00:40:01;99521.66;;;5.35;56.68
83025;BME280;72958;53.326;-1.496;2023-12-20T00:42:39;99513.30;;;5.77;56.50
83025;BME280;72958;53.326;-1.496;2023-12-20T00:45:31;99522.44;;;5.22;58.32
83025;BME280;72958;53.326;-1.496;2023-12-20T00:48:16;99525.63;;;4.92;59.87
83025;BME280;72958;53.326;-1.496;2023-12-20T00:50:49;99519.29;;;5.20;59.09
83025;BME280;72958;53.326;-1.496;2023-12-20T00:53:31;99541.12;;;5.17;59.44
83025;BME280;72958;53.326;-1.496;2023-12-20T00:56:02;99534.59;;;5.10;59.38
83025;BME280;72958;53.326;-1.496;2023-12-20T00:58:28;99531.76;;;4.82;60.84
83025;BME280;72958;53.326;-1.496;2023-12-20T01:00:54;99526.55;;;4.48;62.89
83025;BME280;72958;53.326;-1.496;2023-12-20T01:03:58;99526.61;;;5.04;60.34
83025;BME280;72958;53.326;-1.496;2023-12-20T01:06:59;99521.88;;;5.89;57.24
83025;BME280;72958;53.326;-1.496;2023-12-20T01:09:38;99516.15;;;5.56;57.25
83025;BME280;72958;53.326;-1.496;2023-12-20T01:12:07;99505.37;;;6.90;53.86
83025;BME280;72958;53.326;-1.496;2023-12-20T01:14:47;99519.26;;;4.84;60.18
83025;BME280;72958;53.326;-1.496;2023-12-20T01:17:20;99503.60;;;6.03;56.64
83025;BME280;72958;53.326;-1.496;2023-12-20T01:20:08;99510.47;;;4.20;64.00
83025;BME280;72958;53.326;-1.496;2023-12-20T01:23:12;99501.81;;;4.33;62.23
83025;BME280;72958;53.326;-1.496;2023-12-20T01:26:09;99499.24;;;5.65;59.76
83025;BME280;72958;53.326;-1.496;2023-12-20T01:28:45;99494.57;;;4.90;60.89
83025;BME280;72958;53.326;-1.496;2023-12-20T01:31:21;99498.00;;;4.73;61.13
83025;BME280;72958;53.326;-1.496;2023-12-20T01:34:02;99493.10;;;5.85;57.14
83025;BME280;72958;53.326;-1.496;2023-12-20T01:36:56;99503.07;;;5.45;57.02
83025;BME280;72958;53.326;-1.496;2023-12-20T01:39:31;99493.22;;;5.26;57.88
83025;BME280;72958;53.326;-1.496;2023-12-20T01:42:18;99490.94;;;6.05;57.91
83025;BME280;72958;53.326;-1.496;2023-12-20T01:44:48;99478.03;;;5.32;60.27
83025;BME280;72958;53.326;-1.496;2023-12-20T01:47:41;99480.67;;;4.97;60.05
83025;BME280;72958;53.326;-1.496;2023-12-20T01:50:09;99470.42;;;5.02;61.53
83025;BME280;72958;53.326;-1.496;2023-12-20T01:53:00;99470.27;;;4.21;64.66
83025;BME280;72958;53.326;-1.496;2023-12-20T01:55:25;99471.02;;;4.24;64.40
83025;BME280;72958;53.326;-1.496;2023-12-20T01:57:54;99467.31;;;5.09;61.71
83025;BME280;72958;53.326;-1.496;2023-12-20T02:00:41;99454.53;;;4.98;60.68
83025;BME280;72958;53.326;-1.496;2023-12-20T02:03:31;99463.07;;;4.62;60.84
83025;BME280;72958;53.326;-1.496;2023-12-20T02:05:58;99469.36;;;4.54;62.41
83025;BME280;72958;53.326;-1.496;2023-12-20T02:08:48;99467.75;;;4.88;60.56
83025;BME280;72958;53.326;-1.496;2023-12-20T02:11:23;99464.14;;;4.76;61.59
83025;BME280;72958;53.326;-1.496;2023-12-20T02:14:05;99467.01;;;4.56;62.64
83025;BME280;72958;53.326;-1.496;2023-12-20T02:17:10;99452.10;;;5.24;59.71
83025;BME280;72958;53.326;-1.496;2023-12-20T02:19:37;99454.60;;;5.82;58.80
83025;BME280;72958;53.326;-1.496;2023-12-20T02:22:13;99445.80;;;5.15;62.33
83025;BME280;72958;53.326;-1.496;2023-12-20T02:24:50;99443.41;;;4.77;62.89
83025;BME280;72958;53.326;-1.496;2023-12-20T02:27:22;99452.35;;;5.09;63.38
83025;BME280;72958;53.326;-1.496;2023-12-20T02:30:05;99459.71;;;4.56;64.98
83025;BME280;72958;53.326;-1.496;2023-12-20T02:32:38;99459.56;;;5.21;62.07
83025;BME280;72958;53.326;-1.496;2023-12-20T02:35:11;99450.92;;;4.85;62.59
83025;BME280;72958;53.326;-1.496;2023-12-20T02:37:57;99453.67;;;5.45;62.36
83025;BME280;72958;53.326;-1.496;2023-12-20T02:40:29;99453.23;;;5.78;61.05
83025;BME280;72958;53.326;-1.496;2023-12-20T02:42:57;99451.96;;;5.34;63.87
83025;BME280;72958;53.326;-1.496;2023-12-20T02:45:50;99457.08;;;5.86;61.78
83025;BME280;72958;53.326;-1.496;2023-12-20T02:48:22;99453.71;;;5.52;63.48
83025;BME280;72958;53.326;-1.496;2023-12-20T02:51:29;99450.21;;;5.24;62.71
83025;BME280;72958;53.326;-1.496;2023-12-20T02:54:01;99445.67;;;5.14;64.70
83025;BME280;72958;53.326;-1.496;2023-12-20T02:56:26;99448.95;;;5.28;63.80
83025;BME280;72958;53.326;-1.496;2023-12-20T02:59:28;99440.75;;;5.49;63.70
83025;BME280;72958;53.326;-1.496;2023-12-20T03:02:04;99443.10;;;5.57;64.27
83025;BME280;72958;53.326;-1.496;2023-12-20T03:04:30;99435.42;;;5.70;62.69
83025;BME280;72958;53.326;-1.496;2023-12-20T03:07:08;99444.55;;;4.49;66.12
83025;BME280;72958;53.326;-1.496;2023-12-20T03:10:22;99446.06;;;5.01;64.71
83025;BME280;72958;53.326;-1.496;2023-12-20T03:12:53;99436.95;;;5.85;62.99
83025;BME280;72958;53.326;-1.496;2023-12-20T03:15:42;99429.20;;;5.31;62.77
83025;BME280;72958;53.326;-1.496;2023-12-20T03:18:47;99433.47;;;5.56;62.41
83025;BME280;72958;53.326;-1.496;2023-12-20T03:21:22;99427.27;;;5.42;65.65
83025;BME280;72958;53.326;-1.496;2023-12-20T03:23:54;99425.25;;;5.14;66.45
83025;BME280;72958;53.326;-1.496;2023-12-20T03:26:36;99421.88;;;4.96;67.53
83025;BME280;72958;53.326;-1.496;2023-12-20T03:29:26;99422.98;;;5.08;65.65
83025;BME280;72958;53.326;-1.496;2023-12-20T03:31:52;99439.44;;;5.21;66.47
83025;BME280;72958;53.326;-1.496;2023-12-20T03:34:19;99416.16;;;5.31;66.38
83025;BME280;72958;53.326;-1.496;2023-12-20T03:37:39;99428.89;;;4.57;69.65
83025;BME280;72958;53.326;-1.496;2023-12-20T03:40:11;99439.80;;;4.45;70.39
83025;BME280;72958;53.326;-1.496;2023-12-20T03:42:37;99441.88;;;4.35;68.64
83025;BME280;72958;53.326;-1.496;2023-12-20T03:45:10;99429.25;;;5.51;65.77
83025;BME280;72958;53.326;-1.496;2023-12-20T03:47:47;99429.77;;;4.88;66.98
83025;BME280;72958;53.326;-1.496;2023-12-20T03:50:16;99427.76;;;4.88;66.98
83025;BME280;72958;53.326;-1.496;2023-12-20T03:52:44;99433.10;;;3.83;70.61
83025;BME280;72958;53.326;-1.496;2023-12-20T03:55:47;99419.88;;;4.49;68.41
83025;BME280;72958;53.326;-1.496;2023-12-20T03:58:25;99426.20;;;4.42;68.51
83025;BME280;72958;53.326;-1.496;2023-12-20T04:00:56;99421.56;;;4.42;68.23
83025;BME280;72958;53.326;-1.496;2023-12-20T04:03:24;99414.86;;;5.27;65.90
83025;BME280;72958;53.326;-1.496;2023-12-20T04:05:56;99412.98;;;5.58;64.39
83025;BME280;72958;53.326;-1.496;2023-12-20T04:09:08;99426.79;;;5.39;66.04
83025;BME280;72958;53.326;-1.496;2023-12-20T04:12:00;99424.75;;;4.56;70.09
83025;BME280;72958;53.326;-1.496;2023-12-20T04:15:02;99420.57;;;4.85;69.06
83025;BME280;72958;53.326;-1.496;2023-12-20T04:17:45;99421.30;;;5.52;65.16
83025;BME280;72958;53.326;-1.496;2023-12-20T04:20:39;99394.65;;;4.84;68.43
83025;BME280;72958;53.326;-1.496;2023-12-20T04:23:16;99405.34;;;4.93;67.51
83025;BME280;72958;53.326;-1.496;2023-12-20T04:25:46;99383.22;;;4.82;66.85
83025;BME280;72958;53.326;-1.496;2023-12-20T04:28:38;99385.81;;;5.49;64.70
83025;BME280;72958;53.326;-1.496;2023-12-20T04:31:31;99381.95;;;5.04;65.07
83025;BME280;72958;53.326;-1.496;2023-12-20T04:34:03;99386.19;;;5.62;64.23
83025;BME280;72958;53.326;-1.496;2023-12-20T04:36:32;99377.00;;;5.32;65.48
83025;BME280;72958;53.326;-1.496;2023-12-20T04:40:01;99378.02;;;5.11;66.96
83025;BME280;72958;53.326;-1.496;2023-12-20T04:42:31;99377.85;;;4.59;68.14
83025;BME280;72958;53.326;-1.496;2023-12-20T04:45:32;99373.75;;;5.01;67.02
83025;BME280;72958;53.326;-1.496;2023-12-20T04:48:08;99396.30;;;5.22;66.79
83025;BME280;72958;53.326;-1.496;2023-12-20T04:51:04;99396.99;;;4.95;68.08
83025;BME280;72958;53.326;-1.496;2023-12-20T04:53:38;99398.11;;;5.50;67.54
83025;BME280;72958;53.326;-1.496;2023-12-20T04:56:31;99406.93;;;5.05;68.66
83025;BME280;72958;53.326;-1.496;2023-12-20T04:59:00;99413.90;;;4.73;68.76
83025;BME280;72958;53.326;-1.496;2023-12-20T05:02:14;99414.51;;;5.51;67.89
83025;BME280;72958;53.326;-1.496;2023-12-20T05:05:17;99410.76;;;5.09;68.92
83025;BME280;72958;53.326;-1.496;2023-12-20T05:08:01;99398.15;;;5.49;68.00
83025;BME280;72958;53.326;-1.496;2023-12-20T05:11:08;99397.80;;;5.12;68.60
83025;BME280;72958;53.326;-1.496;2023-12-20T05:14:18;99401.03;;;4.84;70.10
83025;BME280;72958;53.326;-1.496;2023-12-20T05:16:43;99401.34;;;5.31;68.32
83025;BME280;72958;53.326;-1.496;2023-12-20T05:19:36;99412.45;;;5.02;68.80
83025;BME280;72958;53.326;-1.496;2023-12-20T05:22:04;99416.77;;;5.55;67.65
83025;BME280;72958;53.326;-1.496;2023-12-20T05:24:39;99416.76;;;5.01;69.72
83025;BME280;72958;53.326;-1.496;2023-12-20T05:27:12;99412.72;;;5.72;67.53
83025;BME280;72958;53.326;-1.496;2023-12-20T05:29:57;99408.72;;;5.01;68.36
83025;BME280;72958;53.326;-1.496;2023-12-20T05:34:15;99406.53;;;5.20;69.01
83025;BME280;72958;53.326;-1.496;2023-12-20T05:36:45;99409.90;;;4.64;69.41
83025;BME280;72958;53.326;-1.496;2023-12-20T05:39:42;99407.36;;;4.56;67.89
83025;BME280;72958;53.326;-1.496;2023-12-20T05:42:11;99393.07;;;5.02;67.35
83025;BME280;72958;53.326;-1.496;2023-12-20T05:45:01;99381.73;;;4.82;67.95
83025;BME280;72958;53.326;-1.496;2023-12-20T05:47:45;99388.85;;;4.31;69.15
83025;BME280;72958;53.326;-1.496;2023-12-20T05:50:41;99380.48;;;3.96;68.85
83025;BME280;72958;53.326;-1.496;2023-12-20T05:53:22;99391.12;;;5.52;65.56
83025;BME280;72958;53.326;-1.496;2023-12-20T05:56:11;99393.98;;;4.94;66.66
83025;BME280;72958;53.326;-1.496;2023-12-20T05:58:39;99389.51;;;6.22;63.28
83025;BME280;72958;53.326;-1.496;2023-12-20T06:01:08;99386.56;;;5.95;62.08
83025;BME280;72958;53.326;-1.496;2023-12-20T06:03:35;99395.31;;;5.61;63.40
83025;BME280;72958;53.326;-1.496;2023-12-20T06:06:32;99382.38;;;5.97;63.30
83025;BME280;72958;53.326;-1.496;2023-12-20T06:09:10;99383.95;;;6.45;62.17
83025;BME280;72958;53.326;-1.496;2023-12-20T06:11:50;99389.77;;;6.46;61.87
83025;BME280;72958;53.326;-1.496;2023-12-20T06:14:20;99381.48;;;5.96;63.95
83025;BME280;72958;53.326;-1.496;2023-12-20T06:16:48;99388.77;;;5.41;64.39
83025;BME280;72958;53.326;-1.496;2023-12-20T06:19:17;99383.32;;;5.16;65.84
83025;BME280;72958;53.326;-1.496;2023-12-20T06:22:08;99379.18;;;5.18;65.04
83025;BME280;72958;53.326;-1.496;2023-12-20T06:24:41;99369.66;;;5.81;62.73
83025;BME280;72958;53.326;-1.496;2023-12-20T06:27:17;99381.22;;;5.04;63.86
83025;BME280;72958;53.326;-1.496;2023-12-20T06:30:11;99390.31;;;6.33;60.00
83025;BME280;72958;53.326;-1.496;2023-12-20T06:32:57;99404.62;;;6.22;60.07
83025;BME280;72958;53.326;-1.496;2023-12-20T06:36:00;99401.83;;;6.32;59.67
83025;BME280;72958;53.326;-1.496;2023-12-20T06:38:31;99402.88;;;5.63;61.88
83025;BME280;72958;53.326;-1.496;2023-12-20T06:41:18;99401.21;;;6.28;59.43
83025;BME280;72958;53.326;-1.496;2023-12-20T06:44:03;99401.21;;;6.17;60.24
83025;BME280;72958;53.326;-1.496;2023-12-20T06:46:56;99407.43;;;5.91;60.39
83025;BME280;72958;53.326;-1.496;2023-12-20T06:49:48;99399.38;;;6.05;60.67
83025;BME280;72958;53.326;-1.496;2023-12-20T06:52:44;99405.41;;;6.74;57.49
83025;BME280;72958;53.326;-1.496;2023-12-20T06:55:18;99413.28;;;6.02;59.97
83025;BME280;72958;53.326;-1.496;2023-12-20T06:57:48;99401.42;;;5.94;59.46
83025;BME280;72958;53.326;-1.496;2023-12-20T07:00:53;99423.68;;;5.77;60.23
83025;BME280;72958;53.326;-1.496;2023-12-20T07:03:25;99413.76;;;6.52;61.23
83025;BME280;72958;53.326;-1.496;2023-12-20T07:06:09;99425.98;;;6.00;61.37
83025;BME280;72958;53.326;-1.496;2023-12-20T07:08:58;99416.94;;;5.83;62.83
83025;BME280;72958;53.326;-1.496;2023-12-20T07:11:41;99425.86;;;5.79;63.88
83025;BME280;72958;53.326;-1.496;2023-12-20T07:14:13;99436.12;;;6.05;62.62
83025;BME280;72958;53.326;-1.496;2023-12-20T07:16:51;99430.88;;;6.04;63.49
83025;BME280;72958;53.326;-1.496;2023-12-20T07:19:20;99414.56;;;6.30;62.06
83025;BME280;72958;53.326;-1.496;2023-12-20T07:22:26;99422.36;;;6.46;62.59
83025;BME280;72958;53.326;-1.496;2023-12-20T07:25:10;99403.55;;;5.07;66.66
83025;BME280;72958;53.326;-1.496;2023-12-20T07:27:53;99400.21;;;5.38;64.73
83025;BME280;72958;53.326;-1.496;2023-12-20T07:30:40;99410.94;;;5.95;64.50
83025;BME280;72958;53.326;-1.496;2023-12-20T07:33:10;99415.08;;;5.51;64.54
83025;BME280;72958;53.326;-1.496;2023-12-20T07:36:06;99414.57;;;5.70;64.45
83025;BME280;72958;53.326;-1.496;2023-12-20T07:38:38;99422.61;;;5.39;63.93
83025;BME280;72958;53.326;-1.496;2023-12-20T07:41:05;99420.20;;;5.20;64.71
83025;BME280;72958;53.326;-1.496;2023-12-20T07:43:39;99432.68;;;5.85;62.70
83025;BME280;72958;53.326;-1.496;2023-12-20T07:46:35;99429.81;;;5.23;64.40
83025;BME280;72958;53.326;-1.496;2023-12-20T07:49:20;99428.95;;;5.04;64.27
83025;BME280;72958;53.326;-1.496;2023-12-20T07:51:45;99425.09;;;4.60;65.97
83025;BME280;72958;53.326;-1.496;2023-12-20T07:55:00;99422.74;;;6.01;62.10
83025;BME280;72958;53.326;-1.496;2023-12-20T07:57:36;99410.47;;;5.02;62.59
83025;BME280;72958;53.326;-1.496;2023-12-20T08:00:03;99419.67;;;4.93;64.18
83025;BME280;72958;53.326;-1.496;2023-12-20T08:02:39;99409.34;;;5.23;63.38
83025;BME280;72958;53.326;-1.496;2023-12-20T08:05:09;99416.48;;;5.22;62.94
83025;BME280;72958;53.326;-1.496;2023-12-20T08:07:48;99414.52;;;5.45;61.44
83025;BME280;72958;53.326;-1.496;2023-12-20T08:10:20;99421.64;;;6.31;59.98
83025;BME280;72958;53.326;-1.496;2023-12-20T08:13:09;99437.96;;;5.46;62.15
83025;BME280;72958;53.326;-1.496;2023-12-20T08:15:37;99443.28;;;5.83;63.37
83025;BME280;72958;53.326;-1.496;2023-12-20T08:18:31;99450.68;;;4.86;66.86
83025;BME280;72958;53.326;-1.496;2023-12-20T08:22:37;99451.53;;;4.91;68.42
83025;BME280;72958;53.326;-1.496;2023-12-20T08:25:22;99452.44;;;5.25;67.41
83025;BME280;72958;53.326;-1.496;2023-12-20T08:28:03;99459.74;;;4.55;69.31
83025;BME280;72958;53.326;-1.496;2023-12-20T08:30:29;99457.44;;;5.81;67.04
83025;BME280;72958;53.326;-1.496;2023-12-20T08:33:41;99462.05;;;6.44;63.45
83025;BME280;72958;53.326;-1.496;2023-12-20T08:36:22;99441.92;;;5.75;64.36
83025;BME280;72958;53.326;-1.496;2023-12-20T08:38:51;99441.46;;;5.70;63.91
83025;BME280;72958;53.326;-1.496;2023-12-20T08:41:31;99436.43;;;5.41;64.84
83025;BME280;72958;53.326;-1.496;2023-12-20T08:44:15;99448.90;;;6.10;63.75
83025;BME280;72958;53.326;-1.496;2023-12-20T08:47:38;99450.37;;;5.26;65.49
83025;BME280;72958;53.326;-1.496;2023-12-20T08:50:20;99432.55;;;6.29;63.23
83025;BME280;72958;53.326;-1.496;2023-12-20T08:53:12;99451.14;;;5.90;63.66
83025;BME280;72958;53.326;-1.496;2023-12-20T08:55:44;99434.74;;;6.02;62.86
83025;BME280;72958;53.326;-1.496;2023-12-20T08:58:22;99438.11;;;6.21;63.24
83025;BME280;72958;53.326;-1.496;2023-12-20T09:01:22;99446.82;;;5.84;64.87
83025;BME280;72958;53.326;-1.496;2023-12-20T09:04:32;99451.99;;;6.29;64.56
83025;BME280;72958;53.326;-1.496;2023-12-20T09:07:39;99459.75;;;5.66;65.32
83025;BME280;72958;53.326;-1.496;2023-12-20T09:10:19;99462.08;;;6.20;64.42
83025;BME280;72958;53.326;-1.496;2023-12-20T09:13:05;99468.06;;;5.61;66.04
83025;BME280;72958;53.326;-1.496;2023-12-20T09:16:02;99458.13;;;5.75;65.35
83025;BME280;72958;53.326;-1.496;2023-12-20T09:18:28;99452.18;;;6.07;64.02
83025;BME280;72958;53.326;-1.496;2023-12-20T09:21:01;99452.72;;;6.10;62.86
83025;BME280;72958;53.326;-1.496;2023-12-20T09:23:55;99439.13;;;6.51;61.54
83025;BME280;72958;53.326;-1.496;2023-12-20T09:27:07;99433.18;;;6.17;63.95
83025;BME280;72958;53.326;-1.496;2023-12-20T09:29:58;99423.30;;;5.56;66.45
83025;BME280;72958;53.326;-1.496;2023-12-20T09:32:38;99424.90;;;5.43;65.77
83025;BME280;72958;53.326;-1.496;2023-12-20T09:35:09;99437.84;;;7.16;61.31
83025;BME280;72958;53.326;-1.496;2023-12-20T09:37:44;99434.95;;;7.57;60.95
83025;BME280;72958;53.326;-1.496;2023-12-20T09:40:13;99428.87;;;7.16;61.47
83025;BME280;72958;53.326;-1.496;2023-12-20T09:42:56;99423.78;;;7.73;60.92
83025;BME280;72958;53.326;-1.496;2023-12-20T09:45:32;99431.83;;;7.42;62.29
83025;BME280;72958;53.326;-1.496;2023-12-20T09:48:04;99430.42;;;6.01;66.34
83025;BME280;72958;53.326;-1.496;2023-12-20T09:50:31;99423.96;;;7.35;63.45
83025;BME280;72958;53.326;-1.496;2023-12-20T09:53:01;99426.81;;;7.73;62.07
83025;BME280;72958;53.326;-1.496;2023-12-20T09:55:32;99419.16;;;6.84;65.43
83025;BME280;72958;53.326;-1.496;2023-12-20T09:58:20;99414.73;;;6.85;66.77
83025;BME280;72958;53.326;-1.496;2023-12-20T10:00:48;99417.11;;;6.13;67.98
83025;BME280;72958;53.326;-1.496;2023-12-20T10:03:34;99414.01;;;6.73;66.46
83025;BME280;72958;53.326;-1.496;2023-12-20T10:06:54;99415.22;;;6.20;68.05
83025;BME280;72958;53.326;-1.496;2023-12-20T10:09:20;99414.58;;;6.22;68.33
83025;BME280;72958;53.326;-1.496;2023-12-20T10:11:55;99422.99;;;7.00;67.04
83025;BME280;72958;53.326;-1.496;2023-12-20T10:14:19;99413.59;;;6.32;67.70
83025;BME280;72958;53.326;-1.496;2023-12-20T10:16:51;99405.52;;;7.00;66.19
83025;BME280;72958;53.326;-1.496;2023-12-20T10:19:44;99404.87;;;6.41;68.57
83025;BME280;72958;53.326;-1.496;2023-12-20T10:22:32;99399.39;;;5.98;69.67
83025;BME280;72958;53.326;-1.496;2023-12-20T10:25:06;99391.53;;;6.43;69.89
83025;BME280;72958;53.326;-1.496;2023-12-20T10:27:50;99385.37;;;6.21;67.89
83025;BME280;72958;53.326;-1.496;2023-12-20T10:30:19;99377.19;;;6.23;68.80
83025;BME280;72958;53.326;-1.496;2023-12-20T10:32:51;99371.03;;;6.86;67.63
83025;BME280;72958;53.326;-1.496;2023-12-20T10:35:27;99374.41;;;6.51;69.09
83025;BME280;72958;53.326;-1.496;2023-12-20T10:38:19;99370.16;;;5.26;72.39
83025;BME280;72958;53.326;-1.496;2023-12-20T10:41:01;99362.31;;;6.38;70.85
83025;BME280;72958;53.326;-1.496;2023-12-20T10:44:15;99345.63;;;6.20;70.83
83025;BME280;72958;53.326;-1.496;2023-12-20T10:46:47;99341.44;;;7.06;66.50
83025;BME280;72958;53.326;-1.496;2023-12-20T10:49:15;99332.02;;;6.77;68.33
83025;BME280;72958;53.326;-1.496;2023-12-20T10:51:47;99316.47;;;6.94;68.26
83025;BME280;72958;53.326;-1.496;2023-12-20T10:54:42;99311.22;;;7.19;67.34
83025;BME280;72958;53.326;-1.496;2023-12-20T10:57:16;99310.19;;;6.33;70.39
83025;BME280;72958;53.326;-1.496;2023-12-20T11:00:03;99308.19;;;7.14;67.62
83025;BME280;72958;53.326;-1.496;2023-12-20T11:02:50;99319.84;;;6.01;71.32
83025;BME280;72958;53.326;-1.496;2023-12-20T11:05:38;99302.83;;;5.92;70.92
83025;BME280;72958;53.326;-1.496;2023-12-20T11:08:07;99283.62;;;6.44;70.08
83025;BME280;72958;53.326;-1.496;2023-12-20T11:11:56;99263.67;;;6.24;70.55
83025;BME280;72958;53.326;-1.496;2023-12-20T11:14:49;99263.79;;;5.60;73.73
83025;BME280;72958;53.326;-1.496;2023-12-20T11:17:27;99243.18;;;6.96;68.95
83025;BME280;72958;53.326;-1.496;2023-12-20T11:20:14;99233.23;;;5.72;71.38
83025;BME280;72958;53.326;-1.496;2023-12-20T11:22:53;99225.96;;;5.91;70.72
83025;BME280;72958;53.326;-1.496;2023-12-20T11:26:06;99220.79;;;5.94;72.11
83025;BME280;72958;53.326;-1.496;2023-12-20T11:28:49;99217.81;;;6.58;69.30
83025;BME280;72958;53.326;-1.496;2023-12-20T11:31:55;99211.07;;;6.68;71.68
83025;BME280;72958;53.326;-1.496;2023-12-20T11:34:33;99205.84;;;6.04;74.29
83025;BME280;72958;53.326;-1.496;2023-12-20T11:36:59;99212.21;;;6.61;70.72
83025;BME280;72958;53.326;-1.496;2023-12-20T11:40:13;99202.21;;;6.71;70.81
83025;BME280;72958;53.326;-1.496;2023-12-20T11:42:49;99199.49;;;6.08;72.66
83025;BME280;72958;53.326;-1.496;2023-12-20T11:48:36;99166.25;;;6.66;69.05
83025;BME280;72958;53.326;-1.496;2023-12-20T11:51:02;99166.46;;;6.72;68.71
83025;BME280;72958;53.326;-1.496;2023-12-20T11:54:03;99163.44;;;7.54;66.32
83025;BME280;72958;53.326;-1.496;2023-12-20T11:56:51;99162.98;;;6.46;69.85
83025;BME280;72958;53.326;-1.496;2023-12-20T11:59:23;99149.77;;;6.56;69.51
83025;BME280;72958;53.326;-1.496;2023-12-20T12:01:55;99137.50;;;6.44;69.11
83025;BME280;72958;53.326;-1.496;2023-12-20T12:04:25;99134.51;;;6.54;69.96
83025;BME280;72958;53.326;-1.496;2023-12-20T12:06:54;99108.24;;;6.23;71.32
83025;BME280;72958;53.326;-1.496;2023-12-20T12:10:13;99115.92;;;5.99;72.00
83025;BME280;72958;53.326;-1.496;2023-12-20T12:13:47;99101.69;;;6.00;73.86
83025;BME280;72958;53.326;-1.496;2023-12-20T12:16:25;99126.22;;;6.15;73.15
83025;BME280;72958;53.326;-1.496;2023-12-20T12:18:56;99083.88;;;6.32;71.90
83025;BME280;72958;53.326;-1.496;2023-12-20T12:22:12;99087.79;;;6.84;69.05
83025;BME280;72958;53.326;-1.496;2023-12-20T12:25:11;99096.29;;;6.14;71.65
83025;BME280;72958;53.326;-1.496;2023-12-20T12:27:56;99101.18;;;6.21;72.61
83025;BME280;72958;53.326;-1.496;2023-12-20T12:30:33;99082.64;;;5.83;73.70
83025;BME280;72958;53.326;-1.496;2023-12-20T12:33:35;99082.88;;;6.82;70.84
83025;BME280;72958;53.326;-1.496;2023-12-20T12:36:17;99085.27;;;6.49;70.17
83025;BME280;72958;53.326;-1.496;2023-12-20T12:38:49;99104.81;;;6.46;70.09
83025;BME280;72958;53.326;-1.496;2023-12-20T12:41:43;99099.96;;;6.37;70.29
83025;BME280;72958;53.326;-1.496;2023-12-20T12:44:16;99091.18;;;6.93;68.62
83025;BME280;72958;53.326;-1.496;2023-12-20T12:47:37;99078.98;;;6.61;70.31
83025;BME280;72958;53.326;-1.496;2023-12-20T12:50:37;99058.19;;;6.67;69.88
83025;BME280;72958;53.326;-1.496;2023-12-20T12:53:08;99066.34;;;7.14;69.94
83025;BME280;72958;53.326;-1.496;2023-12-20T12:55:35;99066.61;;;7.51;67.24
83025;BME280;72958;53.326;-1.496;2023-12-20T12:58:43;99051.45;;;6.62;70.24
83025;BME280;72958;53.326;-1.496;2023-12-20T13:01:14;99055.45;;;6.97;67.85
83025;BME280;72958;53.326;-1.496;2023-12-20T13:03:42;99042.60;;;7.16;68.72
83025;BME280;72958;53.326;-1.496;2023-12-20T13:06:08;99052.12;;;6.95;68.61
83025;BME280;72958;53.326;-1.496;2023-12-20T13:08:45;99043.34;;;6.92;70.04
83025;BME280;72958;53.326;-1.496;2023-12-20T13:11:17;99039.11;;;6.30;73.45
83025;BME280;72958;53.326;-1.496;2023-12-20T13:13:55;99041.83;;;5.69;74.93
83025;BME280;72958;53.326;-1.496;2023-12-20T13:16:39;99023.97;;;6.90;72.09
83025;BME280;72958;53.326;-1.496;2023-12-20T13:19:46;99023.68;;;5.91;74.29
83025;BME280;72958;53.326;-1.496;2023-12-20T13:22:19;99008.58;;;6.22;73.92
83025;BME280;72958;53.326;-1.496;2023-12-20T13:24:44;99006.26;;;6.26;72.65
83025;BME280;72958;53.326;-1.496;2023-12-20T13:27:19;99004.49;;;7.54;69.61
83025;BME280;72958;53.326;-1.496;2023-12-20T13:30:12;98997.02;;;7.00;71.18
83025;BME280;72958;53.326;-1.496;2023-12-20T13:32:38;98993.34;;;5.95;73.75
83025;BME280;72958;53.326;-1.496;2023-12-20T13:35:07;98995.59;;;6.77;71.60
83025;BME280;72958;53.326;-1.496;2023-12-20T13:37:57;98992.92;;;7.74;67.91
83025;BME280;72958;53.326;-1.496;2023-12-20T13:40:33;98960.26;;;6.62;70.63
83025;BME280;72958;53.326;-1.496;2023-12-20T13:43:37;98977.88;;;6.70;71.60
83025;BME280;72958;53.326;-1.496;2023-12-20T13:46:42;98962.21;;;6.38;70.67
83025;BME280;72958;53.326;-1.496;2023-12-20T13:49:32;98948.92;;;6.39;71.07
83025;BME280;72958;53.326;-1.496;2023-12-20T13:52:23;98940.14;;;6.67;72.20
83025;BME280;72958;53.326;-1.496;2023-12-20T13:54:56;98947.72;;;6.38;74.03
83025;BME280;72958;53.326;-1.496;2023-12-20T13:57:29;98921.09;;;6.54;72.69
83025;BME280;72958;53.326;-1.496;2023-12-20T14:00:02;98919.62;;;7.01;70.98
83025;BME280;72958;53.326;-1.496;2023-12-20T14:02:39;98913.20;;;6.27;73.86
83025;BME280;72958;53.326;-1.496;2023-12-20T14:05:17;98922.77;;;6.43;73.47
83025;BME280;72958;53.326;-1.496;2023-12-20T14:07:45;98916.36;;;6.38;73.17
83025;BME280;72958;53.326;-1.496;2023-12-20T14:10:36;98906.07;;;6.43;72.91
83025;BME280;72958;53.326;-1.496;2023-12-20T14:13:25;98910.08;;;6.99;71.24
83025;BME280;72958;53.326;-1.496;2023-12-20T14:16:27;98903.01;;;6.34;72.22
83025;BME280;72958;53.326;-1.496;2023-12-20T14:19:16;98924.59;;;6.79;73.76
83025;BME280;72958;53.326;-1.496;2023-12-20T14:22:24;98911.35;;;6.67;74.01
83025;BME280;72958;53.326;-1.496;2023-12-20T14:26:17;98898.99;;;6.58;73.26
83025;BME280;72958;53.326;-1.496;2023-12-20T14:29:14;98911.72;;;6.69;73.58